sensor_id;sensor_type;location;lat;lon;timestamp;P1;durP1;ratioP1;P2;durP2;ratioP2
33952;SDS011;20231;42.710;23.280;2023-03-01T00:01:49;4.75;;;3.22;;
33952;SDS011;20231;42.710;23.280;2023-03-01T00:04:14;7.35;;;3.42;;
33952;SDS011;20231;42.710;23.280;2023-03-01T00:06:41;5.85;;;3.72;;
33952;SDS011;20231;42.710;23.280;2023-03-01T00:09:07;5.55;;;3.35;;
33952;SDS011;20231;42.710;23.280;2023-03-01T00:11:33;5.65;;;3.65;;
33952;SDS011;20231;42.710;23.280;2023-03-01T00:14:00;4.45;;;3.58;;
33952;SDS011;20231;42.710;23.280;2023-03-01T00:16:31;4.90;;;3.70;;
33952;SDS011;20231;42.710;23.280;2023-03-01T00:19:07;4.25;;;3.15;;
33952;SDS011;20231;42.710;23.280;2023-03-01T00:21:36;5.88;;;3.67;;
33952;SDS011;20231;42.710;23.280;2023-03-01T00:24:01;4.15;;;3.17;;
33952;SDS011;20231;42.710;23.280;2023-03-01T00:26:27;4.80;;;3.15;;
33952;SDS011;20231;42.710;23.280;2023-03-01T00:28:53;3.03;;;2.72;;
33952;SDS011;20231;42.710;23.280;2023-03-01T00:31:24;3.25;;;2.50;;
33952;SDS011;20231;42.710;23.280;2023-03-01T00:33:59;3.85;;;2.17;;
33952;SDS011;20231;42.710;23.280;2023-03-01T00:36:27;3.17;;;2.50;;
33952;SDS011;20231;42.710;23.280;2023-03-01T00:38:57;3.55;;;2.63;;
33952;SDS011;20231;42.710;23.280;2023-03-01T00:41:23;2.95;;;2.17;;
33952;SDS011;20231;42.710;23.280;2023-03-01T00:43:51;3.45;;;2.53;;
33952;SDS011;20231;42.710;23.280;2023-03-01T00:46:19;4.63;;;2.67;;
33952;SDS011;20231;42.710;23.280;2023-03-01T00:48:46;2.53;;;2.22;;
33952;SDS011;20231;42.710;23.280;2023-03-01T00:51:15;2.20;;;2.00;;
33952;SDS011;20231;42.710;23.280;2023-03-01T00:53:52;2.50;;;2.10;;
33952;SDS011;20231;42.710;23.280;2023-03-01T00:56:20;2.35;;;1.85;;
33952;SDS011;20231;42.710;23.280;2023-03-01T00:58:45;3.80;;;2.28;;
33952;SDS011;20231;42.710;23.280;2023-03-01T01:01:13;3.35;;;2.40;;
33952;SDS011;20231;42.710;23.280;2023-03-01T01:06:15;2.17;;;1.98;;
33952;SDS011;20231;42.710;23.280;2023-03-01T01:08:45;3.38;;;2.40;;
33952;SDS011;20231;42.710;23.280;2023-03-01T01:11:11;4.22;;;2.20;;
33952;SDS011;20231;42.710;23.280;2023-03-01T01:13:37;2.30;;;2.05;;
33952;SDS011;20231;42.710;23.280;2023-03-01T01:16:03;2.90;;;2.20;;
33952;SDS011;20231;42.710;23.280;2023-03-01T01:18:28;2.70;;;2.45;;
33952;SDS011;20231;42.710;23.280;2023-03-01T01:20:54;3.22;;;2.13;;
33952;SDS011;20231;42.710;23.280;2023-03-01T01:23:19;2.33;;;2.08;;
33952;SDS011;20231;42.710;23.280;2023-03-01T01:25:45;5.95;;;2.33;;
33952;SDS011;20231;42.710;23.280;2023-03-01T01:28:10;3.17;;;2.30;;
33952;SDS011;20231;42.710;23.280;2023-03-01T01:30:36;2.85;;;2.30;;
33952;SDS011;20231;42.710;23.280;2023-03-01T01:33:02;3.42;;;2.33;;
33952;SDS011;20231;42.710;23.280;2023-03-01T01:35:27;2.70;;;2.17;;
33952;SDS011;20231;42.710;23.280;2023-03-01T01:37:53;2.60;;;2.40;;
33952;SDS011;20231;42.710;23.280;2023-03-01T01:40:18;3.08;;;2.50;;
33952;SDS011;20231;42.710;23.280;2023-03-01T01:42:43;3.17;;;2.05;;
33952;SDS011;20231;42.710;23.280;2023-03-01T01:45:29;2.83;;;2.00;;
33952;SDS011;20231;42.710;23.280;2023-03-01T01:47:58;2.88;;;2.10;;
33952;SDS011;20231;42.710;23.280;2023-03-01T01:50:39;2.92;;;1.90;;
33952;SDS011;20231;42.710;23.280;2023-03-01T01:53:10;3.22;;;2.00;;
33952;SDS011;20231;42.710;23.280;2023-03-01T01:55:42;2.08;;;1.88;;
33952;SDS011;20231;42.710;23.280;2023-03-01T01:58:12;2.45;;;1.95;;
33952;SDS011;20231;42.710;23.280;2023-03-01T02:00:41;4.07;;;2.60;;
33952;SDS011;20231;42.710;23.280;2023-03-01T02:03:08;4.22;;;2.20;;
33952;SDS011;20231;42.710;23.280;2023-03-01T02:08:20;4.05;;;3.15;;
33952;SDS011;20231;42.710;23.280;2023-03-01T02:10:48;5.82;;;3.42;;
33952;SDS011;20231;42.710;23.280;2023-03-01T02:13:15;4.40;;;3.70;;
33952;SDS011;20231;42.710;23.280;2023-03-01T02:15:40;6.53;;;3.45;;
33952;SDS011;20231;42.710;23.280;2023-03-01T02:18:08;7.75;;;4.05;;
33952;SDS011;20231;42.710;23.280;2023-03-01T02:20:51;7.03;;;4.43;;
33952;SDS011;20231;42.710;23.280;2023-03-01T02:23:27;9.48;;;5.03;;
33952;SDS011;20231;42.710;23.280;2023-03-01T02:25:58;11.60;;;5.22;;
33952;SDS011;20231;42.710;23.280;2023-03-01T02:28:33;10.93;;;4.78;;
33952;SDS011;20231;42.710;23.280;2023-03-01T02:31:01;5.78;;;3.70;;
33952;SDS011;20231;42.710;23.280;2023-03-01T02:33:46;5.17;;;2.93;;
33952;SDS011;20231;42.710;23.280;2023-03-01T02:36:17;4.88;;;2.03;;
33952;SDS011;20231;42.710;23.280;2023-03-01T02:38:46;2.22;;;1.80;;
33952;SDS011;20231;42.710;23.280;2023-03-01T02:41:13;2.60;;;1.70;;
33952;SDS011;20231;42.710;23.280;2023-03-01T02:43:41;1.77;;;1.50;;
33952;SDS011;20231;42.710;23.280;2023-03-01T02:46:08;2.10;;;1.70;;
33952;SDS011;20231;42.710;23.280;2023-03-01T02:48:47;1.92;;;1.73;;
33952;SDS011;20231;42.710;23.280;2023-03-01T02:54:01;3.28;;;2.10;;
33952;SDS011;20231;42.710;23.280;2023-03-01T02:56:48;2.38;;;1.75;;
33952;SDS011;20231;42.710;23.280;2023-03-01T02:59:16;2.20;;;1.98;;
33952;SDS011;20231;42.710;23.280;2023-03-01T03:01:44;3.47;;;1.80;;
33952;SDS011;20231;42.710;23.280;2023-03-01T03:04:11;2.40;;;2.20;;
33952;SDS011;20231;42.710;23.280;2023-03-01T03:06:46;2.90;;;2.10;;
33952;SDS011;20231;42.710;23.280;2023-03-01T03:09:14;2.78;;;2.20;;
33952;SDS011;20231;42.710;23.280;2023-03-01T03:11:40;2.03;;;1.90;;
33952;SDS011;20231;42.710;23.280;2023-03-01T03:14:08;2.50;;;2.05;;
33952;SDS011;20231;42.710;23.280;2023-03-01T03:16:42;2.60;;;2.10;;
33952;SDS011;20231;42.710;23.280;2023-03-01T03:19:09;2.28;;;1.88;;
33952;SDS011;20231;42.710;23.280;2023-03-01T03:21:35;2.53;;;1.90;;
33952;SDS011;20231;42.710;23.280;2023-03-01T03:24:01;2.03;;;1.80;;
33952;SDS011;20231;42.710;23.280;2023-03-01T03:26:26;2.28;;;1.90;;
33952;SDS011;20231;42.710;23.280;2023-03-01T03:28:52;2.60;;;2.03;;
33952;SDS011;20231;42.710;23.280;2023-03-01T03:31:17;2.40;;;2.20;;
33952;SDS011;20231;42.710;23.280;2023-03-01T03:33:43;3.05;;;2.40;;
33952;SDS011;20231;42.710;23.280;2023-03-01T03:36:08;2.50;;;2.10;;
33952;SDS011;20231;42.710;23.280;2023-03-01T03:38:38;3.17;;;2.10;;
33952;SDS011;20231;42.710;23.280;2023-03-01T03:41:05;2.40;;;2.10;;
33952;SDS011;20231;42.710;23.280;2023-03-01T03:43:36;4.63;;;2.30;;
33952;SDS011;20231;42.710;23.280;2023-03-01T03:46:02;3.55;;;2.53;;
33952;SDS011;20231;42.710;23.280;2023-03-01T03:48:31;2.78;;;2.38;;
33952;SDS011;20231;42.710;23.280;2023-03-01T03:51:00;3.30;;;2.22;;
33952;SDS011;20231;42.710;23.280;2023-03-01T03:53:26;4.53;;;2.20;;
33952;SDS011;20231;42.710;23.280;2023-03-01T03:55:52;2.15;;;1.95;;
33952;SDS011;20231;42.710;23.280;2023-03-01T03:58:19;3.65;;;2.40;;
33952;SDS011;20231;42.710;23.280;2023-03-01T04:00:48;2.95;;;2.65;;
33952;SDS011;20231;42.710;23.280;2023-03-01T04:03:16;2.50;;;2.30;;
33952;SDS011;20231;42.710;23.280;2023-03-01T04:05:43;3.20;;;2.13;;
33952;SDS011;20231;42.710;23.280;2023-03-01T04:08:09;4.00;;;2.72;;
33952;SDS011;20231;42.710;23.280;2023-03-01T04:10:42;3.65;;;2.85;;
33952;SDS011;20231;42.710;23.280;2023-03-01T04:13:11;3.07;;;2.50;;
33952;SDS011;20231;42.710;23.280;2023-03-01T04:15:38;3.95;;;2.25;;
33952;SDS011;20231;42.710;23.280;2023-03-01T04:18:04;2.72;;;2.30;;
33952;SDS011;20231;42.710;23.280;2023-03-01T04:20:32;2.88;;;2.15;;
33952;SDS011;20231;42.710;23.280;2023-03-01T04:23:01;4.90;;;2.00;;
33952;SDS011;20231;42.710;23.280;2023-03-01T04:25:37;3.10;;;2.00;;
33952;SDS011;20231;42.710;23.280;2023-03-01T04:28:04;3.55;;;2.00;;
33952;SDS011;20231;42.710;23.280;2023-03-01T04:30:29;3.67;;;2.20;;
33952;SDS011;20231;42.710;23.280;2023-03-01T04:32:54;2.17;;;1.98;;
33952;SDS011;20231;42.710;23.280;2023-03-01T04:35:20;2.33;;;1.90;;
33952;SDS011;20231;42.710;23.280;2023-03-01T04:37:45;2.20;;;2.00;;
33952;SDS011;20231;42.710;23.280;2023-03-01T04:40:11;2.95;;;2.55;;
33952;SDS011;20231;42.710;23.280;2023-03-01T04:42:41;3.45;;;2.42;;
33952;SDS011;20231;42.710;23.280;2023-03-01T04:45:07;2.78;;;2.00;;
33952;SDS011;20231;42.710;23.280;2023-03-01T04:47:38;2.28;;;1.95;;
33952;SDS011;20231;42.710;23.280;2023-03-01T04:50:08;4.20;;;1.73;;
33952;SDS011;20231;42.710;23.280;2023-03-01T04:52:35;2.75;;;2.00;;
33952;SDS011;20231;42.710;23.280;2023-03-01T04:55:00;4.22;;;2.42;;
33952;SDS011;20231;42.710;23.280;2023-03-01T04:57:27;4.22;;;2.28;;
33952;SDS011;20231;42.710;23.280;2023-03-01T04:59:52;2.33;;;2.00;;
33952;SDS011;20231;42.710;23.280;2023-03-01T05:02:18;2.42;;;2.22;;
33952;SDS011;20231;42.710;23.280;2023-03-01T05:04:43;6.05;;;2.58;;
33952;SDS011;20231;42.710;23.280;2023-03-01T05:07:08;3.08;;;2.38;;
33952;SDS011;20231;42.710;23.280;2023-03-01T05:09:34;3.35;;;2.40;;
33952;SDS011;20231;42.710;23.280;2023-03-01T05:11:59;3.08;;;2.63;;
33952;SDS011;20231;42.710;23.280;2023-03-01T05:14:25;4.20;;;2.70;;
33952;SDS011;20231;42.710;23.280;2023-03-01T05:16:50;3.38;;;2.80;;
33952;SDS011;20231;42.710;23.280;2023-03-01T05:19:17;4.15;;;2.72;;
33952;SDS011;20231;42.710;23.280;2023-03-01T05:21:47;3.38;;;2.47;;
33952;SDS011;20231;42.710;23.280;2023-03-01T05:24:31;3.22;;;2.65;;
33952;SDS011;20231;42.710;23.280;2023-03-01T05:26:59;4.00;;;2.33;;
33952;SDS011;20231;42.710;23.280;2023-03-01T05:29:25;3.88;;;2.50;;
33952;SDS011;20231;42.710;23.280;2023-03-01T05:34:19;6.97;;;3.45;;
33952;SDS011;20231;42.710;23.280;2023-03-01T05:36:48;3.55;;;2.67;;
33952;SDS011;20231;42.710;23.280;2023-03-01T05:39:13;6.07;;;3.70;;
33952;SDS011;20231;42.710;23.280;2023-03-01T05:41:38;10.57;;;3.35;;
33952;SDS011;20231;42.710;23.280;2023-03-01T05:44:06;4.10;;;3.53;;
33952;SDS011;20231;42.710;23.280;2023-03-01T05:46:31;5.20;;;3.22;;
33952;SDS011;20231;42.710;23.280;2023-03-01T05:48:57;16.48;;;3.90;;
33952;SDS011;20231;42.710;23.280;2023-03-01T05:51:22;5.07;;;4.07;;
33952;SDS011;20231;42.710;23.280;2023-03-01T05:53:47;5.20;;;4.32;;
33952;SDS011;20231;42.710;23.280;2023-03-01T05:56:13;4.20;;;3.38;;
33952;SDS011;20231;42.710;23.280;2023-03-01T05:58:39;4.63;;;3.47;;
33952;SDS011;20231;42.710;23.280;2023-03-01T06:01:04;4.28;;;3.22;;
33952;SDS011;20231;42.710;23.280;2023-03-01T06:03:29;16.83;;;4.40;;
33952;SDS011;20231;42.710;23.280;2023-03-01T06:05:56;4.72;;;3.53;;
33952;SDS011;20231;42.710;23.280;2023-03-01T06:08:23;5.38;;;3.10;;
33952;SDS011;20231;42.710;23.280;2023-03-01T06:10:49;5.50;;;3.47;;
33952;SDS011;20231;42.710;23.280;2023-03-01T06:13:14;6.35;;;4.15;;
33952;SDS011;20231;42.710;23.280;2023-03-01T06:15:39;6.03;;;3.47;;
33952;SDS011;20231;42.710;23.280;2023-03-01T06:18:05;4.03;;;3.38;;
33952;SDS011;20231;42.710;23.280;2023-03-01T06:20:30;5.05;;;3.72;;
33952;SDS011;20231;42.710;23.280;2023-03-01T06:22:56;5.97;;;3.60;;
33952;SDS011;20231;42.710;23.280;2023-03-01T06:25:22;5.15;;;3.30;;
33952;SDS011;20231;42.710;23.280;2023-03-01T06:27:49;6.18;;;3.53;;
33952;SDS011;20231;42.710;23.280;2023-03-01T06:30:15;4.10;;;3.08;;
33952;SDS011;20231;42.710;23.280;2023-03-01T06:32:42;5.88;;;3.47;;
33952;SDS011;20231;42.710;23.280;2023-03-01T06:35:08;5.90;;;3.95;;
33952;SDS011;20231;42.710;23.280;2023-03-01T06:37:35;6.65;;;3.85;;
33952;SDS011;20231;42.710;23.280;2023-03-01T06:40:01;3.95;;;3.17;;
33952;SDS011;20231;42.710;23.280;2023-03-01T06:42:33;8.63;;;3.47;;
33952;SDS011;20231;42.710;23.280;2023-03-01T06:44:59;4.57;;;2.80;;
33952;SDS011;20231;42.710;23.280;2023-03-01T06:47:25;4.47;;;2.90;;
33952;SDS011;20231;42.710;23.280;2023-03-01T06:49:50;6.97;;;2.83;;
33952;SDS011;20231;42.710;23.280;2023-03-01T06:52:15;4.80;;;3.20;;
33952;SDS011;20231;42.710;23.280;2023-03-01T06:54:41;3.60;;;2.72;;
33952;SDS011;20231;42.710;23.280;2023-03-01T06:57:06;5.55;;;2.83;;
33952;SDS011;20231;42.710;23.280;2023-03-01T06:59:31;6.95;;;2.50;;
33952;SDS011;20231;42.710;23.280;2023-03-01T07:01:57;4.43;;;2.50;;
33952;SDS011;20231;42.710;23.280;2023-03-01T07:04:22;8.48;;;3.22;;
33952;SDS011;20231;42.710;23.280;2023-03-01T07:06:48;7.30;;;2.83;;
33952;SDS011;20231;42.710;23.280;2023-03-01T07:09:20;5.85;;;3.00;;
33952;SDS011;20231;42.710;23.280;2023-03-01T07:11:48;3.63;;;2.90;;
33952;SDS011;20231;42.710;23.280;2023-03-01T07:14:14;4.47;;;2.97;;
33952;SDS011;20231;42.710;23.280;2023-03-01T07:16:40;6.53;;;3.08;;
33952;SDS011;20231;42.710;23.280;2023-03-01T07:19:05;6.20;;;3.75;;
33952;SDS011;20231;42.710;23.280;2023-03-01T07:21:31;8.98;;;3.22;;
33952;SDS011;20231;42.710;23.280;2023-03-01T07:23:56;4.68;;;3.17;;
33952;SDS011;20231;42.710;23.280;2023-03-01T07:26:22;9.02;;;3.97;;
33952;SDS011;20231;42.710;23.280;2023-03-01T07:28:47;8.13;;;3.25;;
33952;SDS011;20231;42.710;23.280;2023-03-01T07:31:13;5.72;;;3.20;;
33952;SDS011;20231;42.710;23.280;2023-03-01T07:33:39;6.15;;;3.58;;
33952;SDS011;20231;42.710;23.280;2023-03-01T07:36:04;9.25;;;3.92;;
33952;SDS011;20231;42.710;23.280;2023-03-01T07:38:31;6.53;;;3.38;;
33952;SDS011;20231;42.710;23.280;2023-03-01T07:40:58;4.72;;;3.20;;
33952;SDS011;20231;42.710;23.280;2023-03-01T07:43:25;5.57;;;3.60;;
33952;SDS011;20231;42.710;23.280;2023-03-01T07:45:50;7.63;;;3.25;;
33952;SDS011;20231;42.710;23.280;2023-03-01T07:48:16;4.40;;;3.03;;
33952;SDS011;20231;42.710;23.280;2023-03-01T07:50:41;7.07;;;3.15;;
33952;SDS011;20231;42.710;23.280;2023-03-01T07:53:07;5.07;;;2.67;;
33952;SDS011;20231;42.710;23.280;2023-03-01T07:55:33;5.25;;;3.30;;
33952;SDS011;20231;42.710;23.280;2023-03-01T07:57:59;7.90;;;4.63;;
33952;SDS011;20231;42.710;23.280;2023-03-01T08:00:24;5.97;;;2.72;;
33952;SDS011;20231;42.710;23.280;2023-03-01T08:02:50;4.47;;;3.20;;
33952;SDS011;20231;42.710;23.280;2023-03-01T08:05:15;5.00;;;3.20;;
33952;SDS011;20231;42.710;23.280;2023-03-01T08:07:41;12.27;;;3.20;;
33952;SDS011;20231;42.710;23.280;2023-03-01T08:10:06;4.75;;;2.92;;
33952;SDS011;20231;42.710;23.280;2023-03-01T08:12:32;3.72;;;2.60;;
33952;SDS011;20231;42.710;23.280;2023-03-01T08:14:58;4.75;;;2.85;;
33952;SDS011;20231;42.710;23.280;2023-03-01T08:17:23;5.45;;;2.70;;
33952;SDS011;20231;42.710;23.280;2023-03-01T08:19:49;9.23;;;2.72;;
33952;SDS011;20231;42.710;23.280;2023-03-01T08:22:14;5.68;;;2.80;;
33952;SDS011;20231;42.710;23.280;2023-03-01T08:24:40;4.35;;;2.90;;
33952;SDS011;20231;42.710;23.280;2023-03-01T08:27:05;6.50;;;3.10;;
33952;SDS011;20231;42.710;23.280;2023-03-01T08:29:33;6.43;;;2.90;;
33952;SDS011;20231;42.710;23.280;2023-03-01T08:31:59;7.90;;;2.65;;
33952;SDS011;20231;42.710;23.280;2023-03-01T08:34:25;11.77;;;4.82;;
33952;SDS011;20231;42.710;23.280;2023-03-01T08:36:51;9.20;;;2.72;;
33952;SDS011;20231;42.710;23.280;2023-03-01T08:39:17;3.67;;;2.70;;
33952;SDS011;20231;42.710;23.280;2023-03-01T08:41:44;3.70;;;2.40;;
33952;SDS011;20231;42.710;23.280;2023-03-01T08:44:10;4.32;;;2.90;;
33952;SDS011;20231;42.710;23.280;2023-03-01T08:53:53;8.68;;;3.55;;
33952;SDS011;20231;42.710;23.280;2023-03-01T08:56:19;27.70;;;10.32;;
33952;SDS011;20231;42.710;23.280;2023-03-01T08:58:46;9.23;;;3.80;;
33952;SDS011;20231;42.710;23.280;2023-03-01T09:01:14;22.70;;;12.77;;
33952;SDS011;20231;42.710;23.280;2023-03-01T09:03:41;48.55;;;22.02;;
33952;SDS011;20231;42.710;23.280;2023-03-01T09:06:07;128.85;;;59.45;;
33952;SDS011;20231;42.710;23.280;2023-03-01T09:08:36;198.60;;;82.95;;
33952;SDS011;20231;42.710;23.280;2023-03-01T09:11:07;47.53;;;21.00;;
33952;SDS011;20231;42.710;23.280;2023-03-01T09:13:33;52.70;;;26.30;;
33952;SDS011;20231;42.710;23.280;2023-03-01T09:16:00;31.02;;;15.38;;
33952;SDS011;20231;42.710;23.280;2023-03-01T09:18:27;13.35;;;5.68;;
33952;SDS011;20231;42.710;23.280;2023-03-01T09:20:52;4.50;;;3.05;;
33952;SDS011;20231;42.710;23.280;2023-03-01T09:23:20;22.38;;;7.60;;
33952;SDS011;20231;42.710;23.280;2023-03-01T09:25:46;15.68;;;6.75;;
33952;SDS011;20231;42.710;23.280;2023-03-01T09:28:11;12.23;;;6.20;;
33952;SDS011;20231;42.710;23.280;2023-03-01T09:30:36;11.18;;;3.70;;
33952;SDS011;20231;42.710;23.280;2023-03-01T09:33:02;7.85;;;2.63;;
33952;SDS011;20231;42.710;23.280;2023-03-01T09:35:27;5.35;;;2.35;;
33952;SDS011;20231;42.710;23.280;2023-03-01T09:37:53;4.13;;;2.45;;
33952;SDS011;20231;42.710;23.280;2023-03-01T09:40:20;4.22;;;2.83;;
33952;SDS011;20231;42.710;23.280;2023-03-01T09:42:53;6.38;;;3.90;;
33952;SDS011;20231;42.710;23.280;2023-03-01T09:45:35;4.47;;;2.70;;
33952;SDS011;20231;42.710;23.280;2023-03-01T09:48:12;6.18;;;2.38;;
33952;SDS011;20231;42.710;23.280;2023-03-01T09:50:42;3.00;;;2.35;;
33952;SDS011;20231;42.710;23.280;2023-03-01T09:53:15;6.35;;;2.78;;
33952;SDS011;20231;42.710;23.280;2023-03-01T10:01:14;4.53;;;2.65;;
33952;SDS011;20231;42.710;23.280;2023-03-01T10:04:00;5.05;;;3.08;;
33952;SDS011;20231;42.710;23.280;2023-03-01T10:06:36;5.03;;;2.38;;
33952;SDS011;20231;42.710;23.280;2023-03-01T10:09:10;2.80;;;2.00;;
33952;SDS011;20231;42.710;23.280;2023-03-01T10:11:48;4.85;;;2.20;;
33952;SDS011;20231;42.710;23.280;2023-03-01T10:14:35;2.92;;;2.00;;
33952;SDS011;20231;42.710;23.280;2023-03-01T10:20:26;2.13;;;1.70;;
33952;SDS011;20231;42.710;23.280;2023-03-01T10:23:00;2.70;;;1.85;;
33952;SDS011;20231;42.710;23.280;2023-03-01T10:30:41;2.83;;;2.20;;
33952;SDS011;20231;42.710;23.280;2023-03-01T10:33:16;3.75;;;2.80;;
33952;SDS011;20231;42.710;23.280;2023-03-01T10:35:45;3.80;;;2.47;;
33952;SDS011;20231;42.710;23.280;2023-03-01T10:38:12;4.90;;;2.67;;
33952;SDS011;20231;42.710;23.280;2023-03-01T10:40:52;3.97;;;2.70;;
33952;SDS011;20231;42.710;23.280;2023-03-01T10:43:25;5.57;;;2.47;;
33952;SDS011;20231;42.710;23.280;2023-03-01T10:45:57;2.72;;;2.05;;
33952;SDS011;20231;42.710;23.280;2023-03-01T10:53:27;3.33;;;2.17;;
33952;SDS011;20231;42.710;23.280;2023-03-01T10:55:57;4.47;;;2.15;;
33952;SDS011;20231;42.710;23.280;2023-03-01T10:58:24;3.97;;;2.05;;
33952;SDS011;20231;42.710;23.280;2023-03-01T11:03:21;1.90;;;1.55;;
33952;SDS011;20231;42.710;23.280;2023-03-01T11:05:51;2.65;;;1.73;;
33952;SDS011;20231;42.710;23.280;2023-03-01T11:08:36;2.25;;;1.70;;
33952;SDS011;20231;42.710;23.280;2023-03-01T11:11:06;4.07;;;2.10;;
33952;SDS011;20231;42.710;23.280;2023-03-01T11:14:01;2.88;;;1.58;;
33952;SDS011;20231;42.710;23.280;2023-03-01T11:16:38;1.83;;;1.55;;
33952;SDS011;20231;42.710;23.280;2023-03-01T11:21:41;2.67;;;1.70;;
33952;SDS011;20231;42.710;23.280;2023-03-01T11:24:12;4.75;;;1.60;;
33952;SDS011;20231;42.710;23.280;2023-03-01T11:26:40;2.70;;;1.73;;
33952;SDS011;20231;42.710;23.280;2023-03-01T11:29:26;3.28;;;1.63;;
33952;SDS011;20231;42.710;23.280;2023-03-01T11:32:01;1.80;;;1.58;;
33952;SDS011;20231;42.710;23.280;2023-03-01T11:40:32;2.50;;;1.88;;
33952;SDS011;20231;42.710;23.280;2023-03-01T11:43:17;3.00;;;1.90;;
33952;SDS011;20231;42.710;23.280;2023-03-01T11:45:56;2.45;;;1.60;;
33952;SDS011;20231;42.710;23.280;2023-03-01T11:56:47;2.97;;;1.70;;
33952;SDS011;20231;42.710;23.280;2023-03-01T11:59:26;4.32;;;2.00;;
33952;SDS011;20231;42.710;23.280;2023-03-01T12:10:27;3.22;;;1.90;;
33952;SDS011;20231;42.710;23.280;2023-03-01T12:21:28;20.65;;;3.67;;
33952;SDS011;20231;42.710;23.280;2023-03-01T12:32:36;5.22;;;2.22;;
33952;SDS011;20231;42.710;23.280;2023-03-01T12:43:29;4.10;;;2.80;;
33952;SDS011;20231;42.710;23.280;2023-03-01T12:51:19;3.97;;;2.70;;
33952;SDS011;20231;42.710;23.280;2023-03-01T12:53:49;4.60;;;3.22;;
33952;SDS011;20231;42.710;23.280;2023-03-01T12:56:20;4.35;;;2.40;;
33952;SDS011;20231;42.710;23.280;2023-03-01T13:04:29;4.25;;;2.60;;
33952;SDS011;20231;42.710;23.280;2023-03-01T13:17:59;6.68;;;3.20;;
33952;SDS011;20231;42.710;23.280;2023-03-01T13:20:27;6.15;;;2.80;;
33952;SDS011;20231;42.710;23.280;2023-03-01T13:23:04;7.53;;;3.70;;
33952;SDS011;20231;42.710;23.280;2023-03-01T13:25:34;5.95;;;3.47;;
33952;SDS011;20231;42.710;23.280;2023-03-01T13:31:06;4.55;;;3.25;;
33952;SDS011;20231;42.710;23.280;2023-03-01T13:33:37;4.63;;;3.10;;
33952;SDS011;20231;42.710;23.280;2023-03-01T13:36:10;8.32;;;4.00;;
33952;SDS011;20231;42.710;23.280;2023-03-01T13:39:01;9.02;;;4.05;;
33952;SDS011;20231;42.710;23.280;2023-03-01T13:49:41;9.68;;;3.70;;
33952;SDS011;20231;42.710;23.280;2023-03-01T13:54:52;5.40;;;3.30;;
33952;SDS011;20231;42.710;23.280;2023-03-01T13:57:24;7.28;;;3.08;;
33952;SDS011;20231;42.710;23.280;2023-03-01T13:59:54;5.25;;;3.05;;
33952;SDS011;20231;42.710;23.280;2023-03-01T14:02:20;6.03;;;3.17;;
33952;SDS011;20231;42.710;23.280;2023-03-01T14:04:55;9.35;;;2.85;;
33952;SDS011;20231;42.710;23.280;2023-03-01T14:07:41;4.47;;;2.80;;
33952;SDS011;20231;42.710;23.280;2023-03-01T14:10:07;4.75;;;2.85;;
33952;SDS011;20231;42.710;23.280;2023-03-01T14:15:06;5.57;;;3.17;;
33952;SDS011;20231;42.710;23.280;2023-03-01T14:17:57;4.32;;;2.55;;
33952;SDS011;20231;42.710;23.280;2023-03-01T14:20:28;4.32;;;2.97;;
33952;SDS011;20231;42.710;23.280;2023-03-01T14:22:57;5.50;;;3.40;;
33952;SDS011;20231;42.710;23.280;2023-03-01T14:25:26;6.72;;;3.58;;
33952;SDS011;20231;42.710;23.280;2023-03-01T14:30:56;5.40;;;3.42;;
33952;SDS011;20231;42.710;23.280;2023-03-01T14:33:31;4.40;;;2.85;;
33952;SDS011;20231;42.710;23.280;2023-03-01T14:36:03;10.07;;;3.88;;
33952;SDS011;20231;42.710;23.280;2023-03-01T14:38:31;5.00;;;3.00;;
33952;SDS011;20231;42.710;23.280;2023-03-01T14:41:12;13.45;;;3.67;;
33952;SDS011;20231;42.710;23.280;2023-03-01T14:43:41;5.03;;;3.10;;
33952;SDS011;20231;42.710;23.280;2023-03-01T14:46:23;9.55;;;3.25;;
33952;SDS011;20231;42.710;23.280;2023-03-01T14:51:41;9.65;;;3.17;;
33952;SDS011;20231;42.710;23.280;2023-03-01T14:54:19;5.47;;;3.00;;
33952;SDS011;20231;42.710;23.280;2023-03-01T14:56:46;5.78;;;3.13;;
33952;SDS011;20231;42.710;23.280;2023-03-01T14:59:12;11.18;;;3.00;;
33952;SDS011;20231;42.710;23.280;2023-03-01T15:04:51;6.60;;;2.97;;
33952;SDS011;20231;42.710;23.280;2023-03-01T15:07:41;7.15;;;2.85;;
33952;SDS011;20231;42.710;23.280;2023-03-01T15:10:22;5.10;;;3.33;;
33952;SDS011;20231;42.710;23.280;2023-03-01T15:12:49;8.85;;;4.03;;
33952;SDS011;20231;42.710;23.280;2023-03-01T15:18:05;11.55;;;3.67;;
33952;SDS011;20231;42.710;23.280;2023-03-01T15:20:42;7.60;;;3.58;;
33952;SDS011;20231;42.710;23.280;2023-03-01T15:26:06;11.60;;;4.13;;
33952;SDS011;20231;42.710;23.280;2023-03-01T15:28:49;6.18;;;3.10;;
33952;SDS011;20231;42.710;23.280;2023-03-01T15:31:20;7.97;;;3.45;;
33952;SDS011;20231;42.710;23.280;2023-03-01T15:33:48;8.02;;;2.97;;
33952;SDS011;20231;42.710;23.280;2023-03-01T15:36:45;8.00;;;2.90;;
33952;SDS011;20231;42.710;23.280;2023-03-01T15:45:06;7.50;;;3.28;;
33952;SDS011;20231;42.710;23.280;2023-03-01T15:47:39;10.20;;;3.67;;
33952;SDS011;20231;42.710;23.280;2023-03-01T15:50:11;7.85;;;3.78;;
33952;SDS011;20231;42.710;23.280;2023-03-01T15:52:42;6.60;;;3.88;;
33952;SDS011;20231;42.710;23.280;2023-03-01T15:55:21;6.57;;;4.10;;
33952;SDS011;20231;42.710;23.280;2023-03-01T15:57:48;7.70;;;4.03;;
33952;SDS011;20231;42.710;23.280;2023-03-01T16:00:15;8.95;;;4.13;;
33952;SDS011;20231;42.710;23.280;2023-03-01T16:02:42;7.75;;;4.13;;
33952;SDS011;20231;42.710;23.280;2023-03-01T16:07:51;6.60;;;3.95;;
33952;SDS011;20231;42.710;23.280;2023-03-01T16:10:17;8.60;;;4.03;;
33952;SDS011;20231;42.710;23.280;2023-03-01T16:12:44;10.30;;;4.35;;
33952;SDS011;20231;42.710;23.280;2023-03-01T16:18:05;10.30;;;4.50;;
33952;SDS011;20231;42.710;23.280;2023-03-01T16:20:32;9.02;;;4.00;;
33952;SDS011;20231;42.710;23.280;2023-03-01T16:22:59;8.50;;;4.68;;
33952;SDS011;20231;42.710;23.280;2023-03-01T16:25:26;8.30;;;4.55;;
33952;SDS011;20231;42.710;23.280;2023-03-01T16:27:51;10.05;;;4.65;;
33952;SDS011;20231;42.710;23.280;2023-03-01T16:30:20;11.70;;;4.45;;
33952;SDS011;20231;42.710;23.280;2023-03-01T16:32:47;9.57;;;4.32;;
33952;SDS011;20231;42.710;23.280;2023-03-01T16:35:14;8.63;;;4.70;;
33952;SDS011;20231;42.710;23.280;2023-03-01T16:37:41;5.63;;;3.83;;
33952;SDS011;20231;42.710;23.280;2023-03-01T16:40:18;8.40;;;3.92;;
33952;SDS011;20231;42.710;23.280;2023-03-01T16:42:46;11.00;;;4.20;;
33952;SDS011;20231;42.710;23.280;2023-03-01T16:45:12;7.10;;;4.18;;
33952;SDS011;20231;42.710;23.280;2023-03-01T16:47:38;8.70;;;4.75;;
33952;SDS011;20231;42.710;23.280;2023-03-01T16:50:03;12.95;;;4.65;;
33952;SDS011;20231;42.710;23.280;2023-03-01T16:52:32;9.48;;;4.38;;
33952;SDS011;20231;42.710;23.280;2023-03-01T16:54:58;9.90;;;4.38;;
33952;SDS011;20231;42.710;23.280;2023-03-01T16:57:24;9.40;;;5.43;;
33952;SDS011;20231;42.710;23.280;2023-03-01T16:59:53;12.25;;;5.60;;
33952;SDS011;20231;42.710;23.280;2023-03-01T17:02:18;9.30;;;5.28;;
33952;SDS011;20231;42.710;23.280;2023-03-01T17:04:44;14.13;;;4.85;;
33952;SDS011;20231;42.710;23.280;2023-03-01T17:07:10;10.55;;;5.38;;
33952;SDS011;20231;42.710;23.280;2023-03-01T17:09:37;16.58;;;6.07;;
33952;SDS011;20231;42.710;23.280;2023-03-01T17:12:03;8.50;;;4.97;;
33952;SDS011;20231;42.710;23.280;2023-03-01T17:14:29;10.52;;;5.35;;
33952;SDS011;20231;42.710;23.280;2023-03-01T17:16:54;13.98;;;5.70;;
33952;SDS011;20231;42.710;23.280;2023-03-01T17:19:20;10.88;;;5.30;;